createdAt,value
2019-04-10T00:02:25.884Z,83.90
2019-04-10T00:04:55.787Z,83.70
2019-04-10T00:07:25.699Z,83.60
2019-04-10T00:09:55.168Z,83.60
2019-04-10T00:12:25.389Z,83.40
2019-04-10T00:14:56.753Z,83.80
2019-04-10T00:17:26.802Z,84.00
2019-04-10T00:19:56.375Z,84.20
2019-04-10T00:22:27.012Z,84.40
2019-04-10T00:24:56.607Z,84.70
2019-04-10T00:27:26.318Z,84.80
2019-04-10T00:29:56.479Z,85.40
2019-04-10T00:32:25.858Z,85.10
2019-04-10T00:34:56.108Z,85.30
2019-04-10T00:37:28.476Z,85.20
2019-04-10T00:39:57.109Z,85.40
2019-04-10T00:42:27.429Z,85.20
2019-04-10T00:44:56.952Z,85.00
2019-04-10T00:47:26.740Z,85.00
2019-04-10T00:49:56.103Z,85.10
2019-04-10T00:52:25.391Z,84.90
2019-04-10T00:54:55.354Z,84.60
2019-04-10T00:57:25.456Z,84.40
2019-04-10T00:59:54.792Z,84.40
2019-04-10T01:02:24.832Z,84.20
2019-04-10T01:04:55.053Z,84.20
2019-04-10T01:07:44.702Z,84.00
2019-04-10T01:10:15.032Z,83.90
2019-04-10T01:12:44.324Z,84.00
2019-04-10T01:15:14.184Z,84.20
2019-04-10T01:17:43.451Z,84.60
2019-04-10T01:20:13.336Z,84.40
2019-04-10T01:22:43.469Z,84.60
2019-04-10T01:25:12.817Z,84.80
2019-04-10T01:27:42.492Z,84.90
2019-04-10T01:30:11.934Z,86.00
2019-04-10T01:32:41.863Z,85.20
2019-04-10T01:35:12.325Z,85.30
2019-04-10T01:37:49.460Z,85.10
2019-04-10T01:40:12.938Z,85.00
2019-04-10T01:42:42.481Z,85.10
2019-04-10T01:45:11.742Z,85.10
2019-04-10T01:47:41.448Z,85.30
2019-04-10T01:50:10.803Z,85.40
2019-04-10T01:52:40.161Z,85.60
2019-04-10T01:55:21.296Z,85.30
2019-04-10T01:57:40.785Z,85.30
2019-04-10T02:00:11.746Z,85.50
2019-04-10T02:02:49.607Z,85.80
2019-04-10T02:05:18.965Z,85.90
2019-04-10T02:07:59.379Z,86.00
2019-04-10T02:10:20.330Z,85.90
2019-04-10T02:12:50.741Z,86.20
2019-04-10T02:15:20.429Z,86.30
2019-04-10T02:17:49.773Z,85.90
2019-04-10T02:20:19.054Z,86.40
2019-04-10T02:22:48.318Z,86.50
2019-04-10T02:25:17.941Z,86.50
2019-04-10T02:27:47.280Z,83.50
2019-04-10T02:30:19.146Z,80.80
2019-04-10T02:32:49.808Z,79.60
2019-04-10T02:35:20.312Z,79.60
2019-04-10T02:37:52.746Z,79.60
2019-04-10T02:40:21.298Z,78.60
2019-04-10T02:42:51.338Z,78.20
2019-04-10T02:45:21.957Z,78.30
2019-04-10T02:47:52.795Z,77.70
2019-04-10T02:50:22.644Z,77.80
2019-04-10T02:52:54.768Z,77.80
2019-04-10T02:55:25.048Z,77.60
2019-04-10T02:57:56.297Z,77.10
2019-04-10T03:00:26.567Z,77.30
2019-04-10T03:02:57.586Z,77.10
2019-04-10T03:05:27.561Z,77.40
2019-04-10T03:07:58.298Z,76.70
2019-04-10T03:10:38.371Z,77.10
2019-04-10T03:13:00.519Z,76.50
2019-04-10T03:15:31.335Z,76.70
2019-04-10T03:18:01.159Z,77.50
2019-04-10T03:20:30.435Z,77.20
2019-04-10T03:23:00.895Z,77.40
2019-04-10T03:25:30.191Z,77.40
2019-04-10T03:27:59.478Z,77.70
2019-04-10T03:30:29.729Z,78.50
2019-04-10T03:33:11.410Z,77.70
2019-04-10T03:35:40.955Z,77.80
2019-04-10T03:38:10.375Z,77.90
2019-04-10T03:40:39.689Z,77.50
2019-04-10T03:43:09.711Z,77.30
2019-04-10T03:45:39.067Z,77.50
2019-04-10T03:48:08.475Z,77.10
2019-04-10T03:50:37.995Z,77.50
2019-04-10T03:53:07.605Z,78.50
2019-04-10T03:55:36.913Z,77.40
2019-04-10T03:58:07.078Z,77.30
2019-04-10T04:00:36.435Z,77.40
2019-04-10T04:03:06.485Z,77.40
2019-04-10T04:05:36.898Z,77.30
2019-04-10T04:08:07.466Z,77.50
2019-04-10T04:10:37.075Z,78.00
2019-04-10T04:13:07.538Z,77.60
2019-04-10T04:15:37.914Z,77.20
2019-04-10T04:18:07.305Z,77.30
2019-04-10T04:20:37.135Z,77.40
2019-04-10T04:23:07.424Z,77.60
2019-04-10T04:25:36.855Z,77.50
2019-04-10T04:28:06.670Z,78.00
2019-04-10T04:30:36.071Z,78.20
2019-04-10T04:33:05.283Z,78.80
2019-04-10T04:35:34.683Z,78.80
2019-04-10T04:38:04.047Z,78.90
2019-04-10T04:40:35.594Z,79.00
2019-04-10T04:43:05.646Z,79.30
2019-04-10T04:45:35.492Z,79.20
2019-04-10T04:48:05.451Z,79.20
2019-04-10T04:50:35.685Z,78.90
2019-04-10T04:53:04.967Z,78.90
2019-04-10T04:55:35.187Z,78.80
2019-04-10T04:58:04.525Z,79.00
2019-04-10T05:00:34.062Z,78.60
2019-04-10T05:03:04.000Z,77.50
2019-04-10T05:05:33.609Z,77.60
2019-04-10T05:08:05.149Z,77.90
2019-04-10T05:10:33.813Z,77.20
2019-04-10T05:13:03.972Z,77.00
2019-04-10T05:15:33.367Z,76.90
2019-04-10T05:18:04.115Z,76.50
2019-04-10T05:20:43.930Z,76.50
2019-04-10T05:23:06.224Z,76.70
2019-04-10T05:25:36.019Z,76.40
2019-04-10T05:28:05.851Z,75.90
2019-04-10T05:30:35.716Z,75.50
2019-04-10T05:33:06.289Z,76.50
2019-04-10T05:35:36.425Z,75.80
2019-04-10T05:38:05.823Z,75.90
2019-04-10T05:40:35.115Z,75.70
2019-04-10T05:43:04.385Z,76.10
2019-04-10T05:45:33.921Z,76.10
2019-04-10T05:48:03.379Z,75.90
2019-04-10T05:50:32.608Z,76.10
2019-04-10T05:53:02.341Z,76.20
2019-04-10T05:55:31.659Z,75.90
2019-04-10T05:58:01.660Z,75.70
2019-04-10T06:00:31.119Z,75.80
2019-04-10T06:03:00.515Z,75.50
2019-04-10T06:05:29.959Z,75.40
2019-04-10T06:07:59.397Z,74.90
2019-04-10T06:10:28.661Z,75.50
2019-04-10T06:12:58.439Z,75.00
2019-04-10T06:15:28.715Z,74.20
2019-04-10T06:17:58.752Z,74.50
2019-04-10T06:20:29.180Z,74.70
2019-04-10T06:22:59.170Z,75.80
2019-04-10T06:25:31.167Z,74.60
2019-04-10T06:28:01.133Z,74.80
2019-04-10T06:30:30.583Z,74.60
2019-04-10T06:33:00.035Z,74.40
2019-04-10T06:35:30.202Z,74.30
2019-04-10T06:38:00.604Z,74.30
2019-04-10T06:40:30.602Z,73.80
2019-04-10T06:43:00.940Z,73.70
2019-04-10T06:45:31.479Z,73.20
2019-04-10T06:48:00.999Z,73.40
2019-04-10T06:50:31.504Z,73.00
2019-04-10T06:53:01.152Z,72.50
2019-04-10T06:55:30.634Z,72.20
2019-04-10T06:58:00.854Z,72.00
2019-04-10T07:00:30.639Z,72.00
2019-04-10T07:03:01.003Z,71.60
2019-04-10T07:05:39.748Z,70.60
2019-04-10T07:08:10.906Z,71.30
2019-04-10T07:10:47.130Z,71.10
2019-04-10T07:13:07.033Z,71.50
2019-04-10T07:15:35.712Z,71.30
2019-04-10T07:18:05.277Z,73.70
2019-04-10T07:20:34.789Z,74.90
2019-04-10T07:23:04.981Z,76.10
2019-04-10T07:25:35.354Z,75.90
2019-04-10T07:28:07.374Z,75.60
2019-04-10T07:30:36.074Z,76.20
2019-04-10T07:33:05.533Z,75.20
2019-04-10T07:35:35.878Z,75.70
2019-04-10T07:38:06.150Z,73.80
2019-04-10T07:40:36.762Z,74.30
2019-04-10T07:43:06.345Z,77.20
2019-04-10T07:45:35.705Z,75.40
2019-04-10T07:48:05.010Z,76.10
2019-04-10T07:50:34.827Z,75.40
2019-04-10T07:53:04.238Z,74.50
2019-04-10T07:55:33.598Z,74.80
2019-04-10T07:58:02.934Z,73.60
2019-04-10T08:00:32.362Z,75.20
2019-04-10T08:03:01.703Z,75.10
2019-04-10T08:05:31.000Z,74.00
2019-04-10T08:08:00.963Z,73.00
2019-04-10T08:10:30.694Z,73.20
2019-04-10T08:13:00.316Z,73.80
2019-04-10T08:15:29.743Z,72.60
2019-04-10T08:17:58.991Z,73.00
2019-04-10T08:20:30.562Z,74.60
2019-04-10T08:22:59.926Z,73.40
2019-04-10T08:25:29.262Z,72.50
2019-04-10T08:27:58.622Z,73.10
2019-04-10T08:30:28.053Z,73.60
2019-04-10T08:33:01.287Z,72.70
2019-04-10T08:35:29.278Z,71.90
2019-04-10T08:37:59.260Z,73.00
2019-04-10T08:40:28.634Z,73.10
2019-04-10T08:42:57.926Z,73.40
2019-04-10T08:45:38.621Z,73.60
2019-04-10T08:47:59.345Z,74.80
2019-04-10T08:50:28.771Z,73.40
2019-04-10T08:52:58.322Z,72.30
2019-04-10T08:55:28.250Z,70.60
2019-04-10T08:57:58.553Z,71.10
2019-04-10T09:00:28.940Z,70.70
2019-04-10T09:02:58.392Z,70.70
2019-04-10T09:05:27.893Z,67.80
2019-04-10T09:07:57.398Z,69.40
2019-04-10T09:10:26.745Z,68.90
2019-04-10T09:12:56.110Z,69.00
2019-04-10T09:15:25.750Z,67.60
2019-04-10T09:17:55.687Z,66.40
2019-04-10T09:20:25.039Z,65.30
2019-04-10T09:23:14.541Z,64.10
2019-04-10T09:25:25.291Z,65.30
2019-04-10T09:27:55.655Z,63.60
2019-04-10T09:30:26.897Z,66.00
2019-04-10T09:32:57.024Z,64.90
2019-04-10T09:35:28.671Z,65.10
2019-04-10T09:37:58.699Z,66.30
2019-04-10T09:40:28.163Z,64.00
2019-04-10T09:42:57.751Z,64.00
2019-04-10T09:45:27.095Z,62.50
2019-04-10T09:47:56.390Z,62.70
2019-04-10T09:50:26.221Z,64.60
2019-04-10T09:52:56.574Z,63.30
2019-04-10T09:55:26.019Z,62.90
2019-04-10T09:57:55.363Z,63.10
2019-04-10T10:00:25.651Z,63.40
2019-04-10T10:02:55.236Z,62.80
2019-04-10T10:05:24.622Z,63.30
2019-04-10T10:07:56.066Z,64.10
2019-04-10T10:10:24.995Z,64.50
2019-04-10T10:12:54.331Z,64.80
2019-04-10T10:15:23.799Z,65.00
2019-04-10T10:17:53.155Z,65.10
2019-04-10T10:20:23.572Z,64.70
2019-04-10T10:22:53.589Z,65.60
2019-04-10T10:25:23.540Z,65.80
2019-04-10T10:27:52.870Z,66.90
2019-04-10T10:30:23.144Z,67.20
2019-04-10T10:32:53.166Z,68.80
2019-04-10T10:35:23.142Z,70.10
2019-04-10T10:37:52.682Z,71.30
2019-04-10T10:40:22.052Z,70.80
2019-04-10T10:42:51.932Z,70.80
2019-04-10T10:45:21.390Z,70.40
2019-04-10T10:47:50.719Z,70.00
2019-04-10T10:50:22.094Z,70.00
2019-04-10T10:52:52.095Z,69.90
2019-04-10T10:55:23.303Z,69.30
2019-04-10T10:57:52.700Z,70.10
2019-04-10T11:00:23.083Z,70.90
2019-04-10T11:02:53.727Z,68.60
2019-04-10T11:05:27.402Z,68.10
2019-04-10T11:07:57.726Z,67.40
2019-04-10T11:10:27.583Z,67.90
2019-04-10T11:12:58.462Z,67.70
2019-04-10T11:15:27.977Z,68.00
2019-04-10T11:17:57.843Z,68.60
2019-04-10T11:20:28.037Z,68.40
2019-04-10T11:22:57.814Z,68.40
2019-04-10T11:25:28.619Z,68.20
2019-04-10T11:27:58.491Z,67.50
2019-04-10T11:30:28.734Z,68.10
2019-04-10T11:32:59.993Z,68.80
2019-04-10T11:35:29.400Z,68.10
2019-04-10T11:38:00.522Z,67.90
2019-04-10T11:40:29.721Z,67.60
2019-04-10T11:43:02.802Z,67.80
2019-04-10T11:45:40.894Z,68.30
2019-04-10T11:48:02.605Z,68.50
2019-04-10T11:50:32.660Z,68.50
2019-04-10T11:53:04.408Z,68.40
2019-04-10T11:55:43.158Z,67.80
2019-04-10T11:58:05.717Z,66.40
2019-04-10T12:00:47.584Z,67.20
2019-04-10T12:03:12.527Z,66.80
2019-04-10T12:05:42.306Z,66.70
2019-04-10T12:13:16.440Z,67.30
2019-04-10T12:15:45.030Z,67.50
2019-04-10T12:18:14.363Z,67.00
2019-04-10T12:20:43.626Z,66.90
2019-04-10T12:23:12.922Z,67.70
2019-04-10T12:25:44.999Z,67.80
2019-04-10T12:28:14.316Z,68.00
2019-04-10T12:30:43.666Z,67.70
2019-04-10T12:33:14.034Z,67.40
2019-04-10T12:35:43.324Z,67.40
2019-04-10T12:38:13.395Z,67.20
2019-04-10T12:40:44.881Z,68.10
2019-04-10T12:43:14.155Z,67.70
2019-04-10T12:45:44.372Z,67.50
2019-04-10T12:48:14.538Z,67.50
2019-04-10T12:50:43.965Z,67.80
2019-04-10T12:53:13.586Z,68.80
2019-04-10T12:55:43.991Z,69.20
2019-04-10T12:58:17.247Z,68.30
2019-04-10T13:00:44.576Z,68.80
2019-04-10T13:03:14.598Z,66.40
2019-04-10T13:05:45.140Z,63.90
2019-04-10T13:08:21.211Z,64.50
2019-04-10T13:10:45.606Z,63.70
2019-04-10T13:13:15.099Z,62.90
2019-04-10T13:15:45.393Z,63.70
2019-04-10T13:18:14.856Z,63.20
2019-04-10T13:20:44.240Z,63.50
2019-04-10T13:23:14.897Z,63.50
2019-04-10T13:25:55.042Z,64.50
2019-04-10T13:28:17.009Z,63.90
2019-04-10T13:30:53.210Z,63.50
2019-04-10T13:33:18.410Z,63.70
2019-04-10T13:35:47.699Z,64.20
2019-04-10T13:38:25.380Z,64.70
2019-04-10T13:40:50.065Z,64.70
2019-04-10T13:43:20.036Z,65.10
2019-04-10T13:45:49.375Z,65.50
2019-04-10T13:48:18.759Z,65.40
2019-04-10T13:50:48.709Z,65.70
2019-04-10T13:53:18.095Z,65.50
2019-04-10T13:55:48.511Z,65.10
2019-04-10T13:58:19.228Z,65.30
2019-04-10T14:00:49.706Z,65.20
2019-04-10T14:03:19.742Z,65.50
2019-04-10T14:05:50.027Z,65.20
2019-04-10T14:08:19.386Z,65.10
2019-04-10T14:10:48.907Z,64.60
2019-04-10T14:13:18.317Z,64.40
2019-04-10T14:15:48.439Z,64.80
2019-04-10T14:18:18.592Z,65.00
2019-04-10T14:20:47.943Z,64.80
2019-04-10T14:23:22.246Z,65.30
2019-04-10T14:26:00.591Z,65.30
2019-04-10T14:28:33.369Z,65.10
2019-04-10T14:31:04.286Z,65.10
2019-04-10T14:33:40.491Z,65.40
2019-04-10T14:36:09.791Z,65.10
2019-04-10T14:38:39.219Z,65.20
2019-04-10T14:41:09.391Z,65.00
2019-04-10T14:43:39.951Z,65.10
2019-04-10T14:46:10.360Z,64.90
2019-04-10T14:48:40.391Z,65.90
2019-04-10T14:51:10.284Z,65.40
2019-04-10T14:53:39.610Z,64.60
2019-04-10T14:56:08.874Z,65.30
2019-04-10T14:58:39.049Z,65.20
2019-04-10T15:01:09.015Z,65.50
2019-04-10T15:03:40.296Z,64.80
2019-04-10T15:06:09.746Z,64.70
2019-04-10T15:08:39.709Z,65.40
2019-04-10T15:11:09.103Z,65.40
2019-04-10T15:13:38.362Z,65.10
2019-04-10T15:16:07.722Z,65.30
2019-04-10T15:18:37.252Z,65.50
2019-04-10T15:21:06.990Z,65.90
2019-04-10T15:23:36.382Z,65.90
2019-04-10T15:26:06.039Z,66.10
2019-04-10T15:28:36.052Z,65.80
2019-04-10T15:31:06.687Z,65.60
2019-04-10T15:33:37.252Z,66.60
2019-04-10T15:36:07.445Z,66.80
2019-04-10T15:38:37.939Z,67.50
2019-04-10T15:41:08.493Z,67.40
2019-04-10T15:43:37.818Z,67.80
2019-04-10T15:46:07.249Z,67.30
2019-04-10T15:48:37.495Z,67.40
2019-04-10T15:51:07.741Z,67.70
2019-04-10T15:53:37.075Z,68.20
2019-04-10T15:56:06.450Z,68.30
2019-04-10T15:58:35.767Z,68.90
2019-04-10T16:01:07.738Z,68.80
2019-04-10T16:03:38.698Z,68.40
2019-04-10T16:06:08.200Z,70.50
2019-04-10T16:08:38.607Z,70.10
2019-04-10T16:11:12.331Z,69.60
2019-04-10T16:13:46.376Z,69.40
2019-04-10T16:16:35.547Z,69.80
2019-04-10T16:19:15.808Z,69.30
2019-04-10T16:21:45.783Z,69.70
2019-04-10T16:24:16.819Z,70.00
2019-04-10T16:26:46.076Z,71.00
2019-04-10T16:29:15.998Z,71.10
2019-04-10T16:31:46.174Z,70.30
2019-04-10T16:34:15.662Z,70.00
2019-04-10T16:36:45.815Z,70.20
2019-04-10T16:39:18.075Z,72.50
2019-04-10T16:42:07.012Z,71.80
2019-04-10T16:44:37.289Z,72.60
2019-04-10T16:47:06.578Z,73.40
2019-04-10T16:49:37.099Z,72.70
2019-04-10T16:52:07.102Z,73.60
2019-04-10T16:54:37.437Z,73.70
2019-04-10T16:57:06.795Z,74.30
2019-04-10T16:59:37.484Z,73.20
2019-04-10T17:02:07.294Z,74.10
2019-04-10T17:04:36.587Z,74.80
2019-04-10T17:07:06.421Z,75.10
2019-04-10T17:09:36.578Z,75.80
2019-04-10T17:12:06.572Z,76.20
2019-04-10T17:14:37.741Z,76.60
2019-04-10T17:17:08.350Z,77.10
2019-04-10T17:19:48.402Z,77.50
2019-04-10T17:22:08.978Z,78.40
2019-04-10T17:24:39.786Z,79.00
2019-04-10T17:27:09.236Z,80.00
2019-04-10T17:29:39.025Z,81.10
2019-04-10T17:32:08.460Z,81.20
2019-04-10T17:34:38.877Z,82.60
2019-04-10T17:37:09.550Z,82.10
2019-04-10T17:39:39.719Z,82.40
2019-04-10T17:42:10.174Z,82.70
2019-04-10T17:44:40.176Z,82.50
2019-04-10T17:47:09.968Z,82.40
2019-04-10T17:49:39.399Z,83.10
2019-04-10T17:52:08.757Z,83.10
2019-04-10T17:54:39.207Z,83.40
2019-04-10T17:57:08.658Z,83.80
2019-04-10T17:59:38.560Z,83.80
2019-04-10T18:02:09.626Z,84.20
2019-04-10T18:04:40.086Z,84.20
2019-04-10T18:07:10.080Z,84.30
2019-04-10T18:09:40.893Z,84.20
2019-04-10T18:12:12.161Z,83.00
2019-04-10T18:14:42.631Z,85.60
2019-04-10T18:17:12.439Z,86.00
2019-04-10T18:19:42.010Z,85.70
2019-04-10T18:22:12.156Z,85.30
2019-04-10T18:24:41.607Z,85.80
2019-04-10T18:27:10.896Z,84.80
2019-04-10T18:29:41.325Z,84.50
2019-04-10T18:32:11.675Z,85.70
2019-04-10T18:34:42.335Z,86.10
2019-04-10T18:37:14.624Z,85.20
2019-04-10T18:39:43.001Z,86.80
2019-04-10T18:42:13.871Z,86.90
2019-04-10T18:44:43.207Z,86.80
2019-04-10T18:47:13.128Z,86.60
2019-04-10T18:49:43.390Z,87.00
2019-04-10T18:52:13.667Z,87.20
2019-04-10T18:54:43.594Z,86.80
2019-04-10T18:57:13.671Z,86.20
2019-04-10T18:59:46.938Z,85.60
2019-04-10T19:02:23.347Z,86.10
2019-04-10T19:04:55.111Z,87.40
2019-04-10T19:07:25.118Z,87.40
2019-04-10T19:09:54.705Z,86.70
2019-04-10T19:12:24.390Z,87.20
2019-04-10T19:14:54.198Z,87.00
2019-04-10T19:17:24.492Z,86.70
2019-04-10T19:19:53.927Z,87.50
2019-04-10T19:22:24.328Z,88.40
2019-04-10T19:24:54.472Z,87.80
2019-04-10T19:27:25.042Z,88.10
2019-04-10T19:29:55.001Z,88.70
2019-04-10T19:32:26.728Z,89.30
2019-04-10T19:34:57.043Z,88.90
2019-04-10T19:37:26.431Z,89.00
2019-04-10T19:39:56.528Z,88.60
2019-04-10T19:42:27.068Z,90.10
2019-04-10T19:44:57.704Z,89.20
2019-04-10T19:47:27.043Z,88.00
2019-04-10T19:49:57.102Z,88.80
2019-04-10T19:52:26.570Z,88.70
2019-04-10T19:54:57.594Z,88.20
2019-04-10T19:57:29.054Z,89.60
2019-04-10T19:59:58.459Z,89.40
2019-04-10T20:02:27.756Z,89.20
2019-04-10T20:04:57.090Z,88.60
2019-04-10T20:07:27.065Z,89.40
2019-04-10T20:09:56.932Z,90.10
2019-04-10T20:12:26.743Z,88.80
2019-04-10T20:14:57.393Z,88.90
2019-04-10T20:17:26.836Z,89.20
2019-04-10T20:19:57.175Z,88.40
2019-04-10T20:22:28.189Z,89.50
2019-04-10T20:24:58.071Z,90.00
2019-04-10T20:27:27.814Z,90.30
2019-04-10T20:29:57.254Z,90.20
2019-04-10T20:32:26.546Z,90.20
2019-04-10T20:34:55.960Z,90.30
2019-04-10T20:37:25.271Z,90.40
2019-04-10T20:39:55.754Z,90.30
2019-04-10T20:42:26.656Z,90.00
2019-04-10T20:44:56.738Z,90.20
2019-04-10T20:47:27.231Z,90.20
2019-04-10T20:49:56.578Z,89.40
2019-04-10T20:52:26.325Z,89.30
2019-04-10T20:54:55.634Z,90.00
2019-04-10T20:57:25.616Z,90.30
2019-04-10T20:59:55.325Z,90.00
2019-04-10T21:02:24.692Z,90.00
2019-04-10T21:05:00.454Z,89.40
2019-04-10T21:07:25.519Z,88.70
2019-04-10T21:09:54.925Z,89.20
2019-04-10T21:12:24.218Z,90.00
2019-04-10T21:14:54.397Z,88.90
2019-04-10T21:17:24.869Z,89.20
2019-04-10T21:19:54.282Z,89.30
2019-04-10T21:22:24.450Z,88.90
2019-04-10T21:24:54.146Z,89.40
2019-04-10T21:27:23.499Z,89.40
2019-04-10T21:29:57.455Z,89.20
2019-04-10T21:32:43.487Z,89.40
2019-04-10T21:35:14.411Z,88.70
2019-04-10T21:37:43.707Z,88.30
2019-04-10T21:40:14.485Z,88.70
2019-04-10T21:42:43.851Z,89.30
2019-04-10T21:45:13.727Z,90.10
2019-04-10T21:47:43.936Z,89.90
2019-04-10T21:50:13.384Z,89.80
2019-04-10T21:52:43.477Z,88.80
2019-04-10T21:55:12.946Z,88.90
2019-04-10T21:57:42.531Z,89.30
2019-04-10T22:00:12.265Z,89.70
2019-04-10T22:02:45.010Z,90.10
2019-04-10T22:05:14.554Z,90.00
2019-04-10T22:07:48.604Z,89.00
2019-04-10T22:10:25.967Z,89.30
2019-04-10T22:12:57.452Z,89.20
2019-04-10T22:15:29.552Z,89.00
2019-04-10T22:17:59.011Z,89.00
2019-04-10T22:20:28.345Z,88.10
2019-04-10T22:22:59.805Z,88.10
2019-04-10T22:25:29.849Z,88.50
2019-04-10T22:28:00.496Z,89.00
2019-04-10T22:30:29.966Z,88.10
2019-04-10T22:32:59.812Z,88.00
2019-04-10T22:35:29.232Z,86.90
2019-04-10T22:37:58.523Z,87.40
2019-04-10T22:40:29.042Z,87.70
2019-04-10T22:42:59.507Z,87.40
2019-04-10T22:45:31.122Z,87.30
2019-04-10T22:48:00.772Z,88.00
2019-04-10T22:50:31.064Z,87.80
2019-04-10T22:53:01.369Z,86.70
2019-04-10T22:55:31.748Z,86.40
2019-04-10T22:58:02.361Z,86.50
2019-04-10T23:00:32.696Z,86.20
2019-04-10T23:03:03.467Z,86.50
2019-04-10T23:05:34.464Z,86.30
2019-04-10T23:08:04.883Z,86.10
2019-04-10T23:10:35.155Z,86.50
2019-04-10T23:13:06.808Z,86.80
2019-04-10T23:15:35.695Z,86.80
2019-04-10T23:18:05.480Z,86.10
2019-04-10T23:20:34.889Z,85.60
2019-04-10T23:23:04.244Z,85.70
2019-04-10T23:25:34.318Z,86.60
2019-04-10T23:28:03.637Z,86.20
2019-04-10T23:30:33.083Z,87.10
2019-04-10T23:33:03.926Z,87.70
2019-04-10T23:35:33.724Z,86.50
2019-04-10T23:38:04.289Z,86.20
2019-04-10T23:40:34.776Z,86.80
2019-04-10T23:43:12.167Z,86.50
2019-04-10T23:45:35.038Z,86.10
2019-04-10T23:48:04.534Z,86.80
2019-04-10T23:50:34.512Z,86.80
2019-04-10T23:53:04.469Z,87.30
2019-04-10T23:55:34.346Z,87.90
2019-04-10T23:58:03.599Z,87.40
